createdAt,value
2023-02-27T00:00:55.239Z,59.12
2023-02-27T00:03:21.901Z,59.92
2023-02-27T00:05:48.821Z,59.76
2023-02-27T00:08:15.365Z,60.59
2023-02-27T00:10:41.880Z,59.96
2023-02-27T00:13:08.379Z,60.15
2023-02-27T00:15:34.791Z,60.78
2023-02-27T00:18:01.339Z,60.56
2023-02-27T00:20:28.462Z,60.91
2023-02-27T00:22:54.841Z,60.95
2023-02-27T00:25:21.296Z,61.37
2023-02-27T00:27:47.742Z,61.15
2023-02-27T00:30:15.719Z,60.41
2023-02-27T00:32:42.986Z,60.35
2023-02-27T00:35:11.635Z,60.47
2023-02-27T00:37:38.623Z,60.74
2023-02-27T00:40:06.266Z,61.49
2023-02-27T00:42:32.821Z,60.99
2023-02-27T00:44:59.280Z,61.15
2023-02-27T00:47:25.688Z,60.92
2023-02-27T00:49:52.470Z,61.25
2023-02-27T00:52:18.941Z,61.87
2023-02-27T00:54:45.410Z,61.89
2023-02-27T00:57:11.801Z,62.07
2023-02-27T00:59:38.275Z,62.64
2023-02-27T01:02:04.801Z,62.40
2023-02-27T01:04:31.217Z,62.31
2023-02-27T01:06:57.595Z,61.92
2023-02-27T01:09:24.964Z,62.47
2023-02-27T01:11:52.436Z,62.70
2023-02-27T01:14:19.389Z,62.72
2023-02-27T01:16:45.939Z,63.03
2023-02-27T01:19:12.490Z,63.60
2023-02-27T01:21:41.931Z,62.82
2023-02-27T01:24:09.610Z,63.15
2023-02-27T01:26:36.330Z,63.07
2023-02-27T01:29:06.267Z,63.15
2023-02-27T01:31:33.238Z,62.50
2023-02-27T01:33:59.790Z,62.60
2023-02-27T01:36:26.303Z,62.23
2023-02-27T01:38:52.805Z,62.59
2023-02-27T01:41:19.229Z,62.25
2023-02-27T01:44:01.218Z,62.50
2023-02-27T01:46:29.426Z,62.21
2023-02-27T01:49:00.242Z,62.02
2023-02-27T01:51:32.295Z,61.85
2023-02-27T01:53:59.589Z,61.82
2023-02-27T01:56:29.882Z,62.46
2023-02-27T01:59:03.909Z,62.13
2023-02-27T02:01:31.806Z,62.58
2023-02-27T02:04:25.178Z,62.65
2023-02-27T02:06:58.095Z,61.47
2023-02-27T02:09:26.112Z,62.23
2023-02-27T02:11:53.180Z,62.59
2023-02-27T02:14:19.734Z,63.08
2023-02-27T02:17:05.460Z,64.04
2023-02-27T02:19:46.678Z,64.24
2023-02-27T02:22:47.037Z,64.60
2023-02-27T02:25:28.638Z,65.16
2023-02-27T02:28:10.406Z,65.68
2023-02-27T02:30:58.050Z,65.90
2023-02-27T02:34:01.616Z,64.92
2023-02-27T02:36:39.070Z,64.30
2023-02-27T02:39:32.667Z,64.75
2023-02-27T02:42:11.562Z,65.51
2023-02-27T02:44:57.251Z,65.29
2023-02-27T02:47:33.972Z,65.34
2023-02-27T02:50:13.831Z,64.39
2023-02-27T02:52:59.057Z,64.26
2023-02-27T02:55:47.313Z,64.71
2023-02-27T02:58:27.688Z,64.68
2023-02-27T03:01:10.615Z,64.98
2023-02-27T03:03:43.220Z,65.41
2023-02-27T03:06:17.013Z,65.54
2023-02-27T03:08:50.036Z,65.18
2023-02-27T03:11:16.561Z,65.42
2023-02-27T03:13:55.516Z,64.53
2023-02-27T03:16:25.869Z,65.18
2023-02-27T03:19:07.968Z,65.66
2023-02-27T03:21:55.874Z,65.40
2023-02-27T03:24:45.216Z,65.08
2023-02-27T03:27:11.960Z,64.53
2023-02-27T03:29:56.844Z,64.36
2023-02-27T03:32:31.192Z,64.07
2023-02-27T03:34:57.824Z,64.14
2023-02-27T03:37:41.085Z,64.15
2023-02-27T03:40:20.273Z,64.67
2023-02-27T03:42:54.848Z,64.94
2023-02-27T03:45:40.159Z,64.46
2023-02-27T03:48:07.739Z,64.41
2023-02-27T03:50:38.438Z,64.44
2023-02-27T03:53:11.208Z,64.42
2023-02-27T03:55:42.486Z,64.17
2023-02-27T03:58:09.238Z,64.30
2023-02-27T04:00:35.700Z,64.05
2023-02-27T04:03:02.586Z,64.03
2023-02-27T04:05:29.662Z,64.00
2023-02-27T04:08:31.910Z,63.93
2023-02-27T04:11:31.415Z,64.69
2023-02-27T04:14:03.856Z,64.88
2023-02-27T04:16:45.888Z,64.59
2023-02-27T04:19:27.376Z,64.33
2023-02-27T04:22:11.928Z,64.38
2023-02-27T04:24:52.202Z,64.15
2023-02-27T04:27:29.995Z,64.18
2023-02-27T04:30:06.285Z,64.03
2023-02-27T04:32:42.731Z,63.99
2023-02-27T04:35:17.621Z,64.08
2023-02-27T04:37:50.747Z,64.32
2023-02-27T04:40:24.781Z,64.03
2023-02-27T04:42:56.618Z,64.08
2023-02-27T04:45:27.175Z,64.68
2023-02-27T04:48:08.514Z,64.54
2023-02-27T04:51:02.258Z,64.92
2023-02-27T04:53:37.340Z,64.88
2023-02-27T04:56:19.242Z,64.85
2023-02-27T04:58:57.199Z,65.40
2023-02-27T05:01:36.377Z,65.83
2023-02-27T05:04:06.395Z,66.55
2023-02-27T05:06:36.120Z,67.05
2023-02-27T05:09:16.029Z,66.27
2023-02-27T05:12:07.358Z,66.45
2023-02-27T05:14:41.833Z,66.61
2023-02-27T05:17:28.829Z,66.17
2023-02-27T05:19:55.908Z,66.14
2023-02-27T05:22:35.222Z,65.78
2023-02-27T05:25:40.380Z,65.86
2023-02-27T05:28:15.855Z,65.58
2023-02-27T05:30:58.745Z,65.68
2023-02-27T05:33:35.833Z,65.04
2023-02-27T05:36:11.537Z,64.91
2023-02-27T05:38:42.558Z,64.78
2023-02-27T05:41:15.860Z,65.01
2023-02-27T05:43:53.742Z,65.07
2023-02-27T05:46:24.635Z,65.17
2023-02-27T05:48:57.936Z,64.93
2023-02-27T05:51:28.787Z,65.56
2023-02-27T05:54:02.256Z,65.42
2023-02-27T05:56:33.071Z,65.46
2023-02-27T05:59:23.510Z,65.21
2023-02-27T06:01:52.913Z,65.15
2023-02-27T06:04:19.992Z,65.46
2023-02-27T06:06:47.656Z,65.23
2023-02-27T06:09:14.137Z,65.26
2023-02-27T06:11:40.646Z,65.65
2023-02-27T06:14:07.056Z,65.77
2023-02-27T06:16:38.014Z,65.52
2023-02-27T06:19:05.864Z,65.23
2023-02-27T06:21:32.608Z,66.28
2023-02-27T06:23:59.006Z,66.63
2023-02-27T06:26:25.893Z,67.97
2023-02-27T06:28:52.518Z,68.75
2023-02-27T06:31:19.021Z,69.02
2023-02-27T06:33:45.386Z,68.29
2023-02-27T06:36:11.810Z,67.42
2023-02-27T06:38:38.271Z,67.21
2023-02-27T06:41:04.869Z,67.46
2023-02-27T06:43:34.622Z,67.84
2023-02-27T06:46:01.083Z,67.80
2023-02-27T06:48:27.518Z,68.72
2023-02-27T06:50:56.137Z,68.97
2023-02-27T06:53:24.248Z,68.51
2023-02-27T06:55:50.843Z,68.38
2023-02-27T06:58:17.853Z,69.41
2023-02-27T07:00:44.314Z,69.12
2023-02-27T07:03:10.771Z,69.72
2023-02-27T07:05:37.193Z,69.42
2023-02-27T07:08:03.947Z,69.79
2023-02-27T07:10:30.877Z,70.28
2023-02-27T07:12:57.225Z,69.66
2023-02-27T07:15:24.472Z,69.33
2023-02-27T07:17:51.179Z,69.61
2023-02-27T07:20:20.091Z,68.89
2023-02-27T07:22:46.693Z,69.11
2023-02-27T07:25:13.127Z,68.73
2023-02-27T07:27:39.566Z,68.95
2023-02-27T07:30:09.503Z,69.35
2023-02-27T07:32:37.423Z,68.64
2023-02-27T07:35:04.074Z,68.54
2023-02-27T07:37:30.413Z,68.40
2023-02-27T07:39:56.762Z,68.91
2023-02-27T07:42:25.466Z,69.32
2023-02-27T07:44:57.104Z,69.53
2023-02-27T07:47:23.556Z,69.72
2023-02-27T07:49:49.923Z,69.10
2023-02-27T07:52:16.281Z,68.77
2023-02-27T07:54:42.714Z,68.81
2023-02-27T07:57:09.160Z,69.17
2023-02-27T07:59:35.544Z,69.01
2023-02-27T08:02:01.941Z,68.53
2023-02-27T08:04:28.321Z,68.09
2023-02-27T08:06:54.668Z,68.09
2023-02-27T08:09:23.508Z,67.74
2023-02-27T08:11:49.953Z,68.07
2023-02-27T08:14:16.312Z,67.32
2023-02-27T08:16:42.668Z,67.27
2023-02-27T08:19:10.135Z,66.73
2023-02-27T08:21:36.460Z,66.93
2023-02-27T08:24:02.990Z,66.60
2023-02-27T08:26:31.199Z,65.93
2023-02-27T08:28:57.726Z,66.19
2023-02-27T08:31:24.532Z,65.89
2023-02-27T08:33:58.111Z,65.82
2023-02-27T08:36:34.236Z,65.36
2023-02-27T08:39:00.666Z,65.02
2023-02-27T08:41:27.136Z,64.67
2023-02-27T08:43:53.686Z,64.47
2023-02-27T08:46:20.116Z,64.37
2023-02-27T08:48:46.490Z,64.56
2023-02-27T08:51:12.841Z,64.54
2023-02-27T08:53:39.259Z,63.97
2023-02-27T08:56:05.991Z,64.09
2023-02-27T08:58:32.595Z,63.21
2023-02-27T09:00:59.052Z,63.56
2023-02-27T09:03:28.638Z,63.18
2023-02-27T09:05:56.081Z,63.30
2023-02-27T09:08:23.365Z,62.34
2023-02-27T09:10:49.817Z,61.39
2023-02-27T09:13:30.764Z,61.38
2023-02-27T09:15:57.439Z,60.84
2023-02-27T09:18:23.904Z,61.00
2023-02-27T09:20:53.616Z,59.70
2023-02-27T09:23:20.095Z,60.32
2023-02-27T09:25:47.422Z,60.10
2023-02-27T09:28:13.955Z,59.70
2023-02-27T09:30:40.354Z,59.50
2023-02-27T09:33:06.838Z,58.41
2023-02-27T09:35:33.408Z,58.67
2023-02-27T09:37:59.859Z,58.35
2023-02-27T09:40:29.516Z,58.38
2023-02-27T09:43:18.730Z,58.25
2023-02-27T09:45:51.647Z,58.30
2023-02-27T09:48:45.668Z,57.02
2023-02-27T09:51:18.469Z,57.97
2023-02-27T09:53:51.237Z,56.01
2023-02-27T09:56:39.796Z,57.07
2023-02-27T09:59:31.477Z,56.68
2023-02-27T10:02:35.580Z,55.74
2023-02-27T10:05:33.202Z,55.26
2023-02-27T10:08:28.828Z,55.44
2023-02-27T10:11:08.502Z,54.97
2023-02-27T10:13:53.020Z,54.34
2023-02-27T10:16:22.577Z,55.22
2023-02-27T10:19:06.269Z,54.92
2023-02-27T10:21:40.895Z,55.55
2023-02-27T10:24:29.281Z,54.05
2023-02-27T10:26:57.613Z,53.98
2023-02-27T10:29:31.250Z,53.61
2023-02-27T10:32:03.713Z,51.71
2023-02-27T10:34:32.699Z,52.26
2023-02-27T10:37:01.922Z,52.44
2023-02-27T10:39:30.029Z,52.83
2023-02-27T10:42:05.355Z,53.40
2023-02-27T10:44:33.257Z,51.13
2023-02-27T10:46:59.699Z,45.52
2023-02-27T10:49:26.621Z,41.08
2023-02-27T10:52:14.436Z,39.45
2023-02-27T10:54:42.301Z,37.54
2023-02-27T10:57:33.398Z,33.61
2023-02-27T11:00:09.304Z,32.54
2023-02-27T11:02:38.983Z,31.47
2023-02-27T11:05:17.638Z,31.45
2023-02-27T11:07:44.415Z,33.52
2023-02-27T11:10:12.510Z,35.80
2023-02-27T11:12:43.391Z,34.26
2023-02-27T11:15:33.689Z,33.57
2023-02-27T11:18:20.548Z,36.38
2023-02-27T11:20:50.636Z,37.40
2023-02-27T11:23:20.687Z,36.13
2023-02-27T11:25:48.187Z,35.90
2023-02-27T11:28:30.655Z,36.35
2023-02-27T11:31:07.667Z,36.20
2023-02-27T11:33:39.195Z,35.03
2023-02-27T11:36:06.104Z,34.09
2023-02-27T11:38:34.649Z,33.06
2023-02-27T11:41:04.210Z,33.14
2023-02-27T11:43:36.843Z,35.02
2023-02-27T11:46:46.181Z,33.94
2023-02-27T11:49:20.608Z,34.39
2023-02-27T11:52:04.387Z,33.20
2023-02-27T11:54:40.998Z,32.71
2023-02-27T11:57:19.510Z,32.71
2023-02-27T12:00:01.489Z,34.16
2023-02-27T12:03:05.009Z,34.10
2023-02-27T12:05:38.975Z,34.01
2023-02-27T12:08:18.059Z,34.02
2023-02-27T12:11:13.029Z,32.64
2023-02-27T12:13:46.201Z,33.04
2023-02-27T12:16:40.283Z,33.16
2023-02-27T12:19:20.680Z,34.18
2023-02-27T12:21:51.567Z,33.93
2023-02-27T12:24:43.945Z,33.36
2023-02-27T12:27:22.060Z,32.93
2023-02-27T12:29:54.686Z,32.96
2023-02-27T12:32:28.767Z,31.97
2023-02-27T12:35:02.092Z,33.10
2023-02-27T12:37:30.620Z,33.35
2023-02-27T12:40:00.492Z,33.57
2023-02-27T12:42:39.076Z,32.82
2023-02-27T12:45:26.815Z,33.73
2023-02-27T12:48:02.947Z,32.90
2023-02-27T12:51:02.792Z,33.36
2023-02-27T12:53:44.492Z,32.55
2023-02-27T12:56:21.221Z,33.36
2023-02-27T12:59:06.769Z,33.97
2023-02-27T13:01:58.469Z,35.97
2023-02-27T13:04:56.353Z,36.52
2023-02-27T13:07:37.085Z,34.85
2023-02-27T13:10:13.481Z,35.07
2023-02-27T13:12:51.375Z,33.60
2023-02-27T13:15:30.710Z,33.63
2023-02-27T13:18:04.786Z,32.72
2023-02-27T13:20:34.810Z,31.83
2023-02-27T13:23:09.561Z,32.26
2023-02-27T13:25:43.734Z,32.23
2023-02-27T13:28:16.864Z,31.49
2023-02-27T13:30:48.430Z,32.92
2023-02-27T13:33:47.623Z,31.24
2023-02-27T13:36:39.018Z,31.75
2023-02-27T13:39:43.845Z,33.07
2023-02-27T13:42:25.392Z,32.63
2023-02-27T13:44:52.901Z,34.64
2023-02-27T13:47:39.780Z,35.23
2023-02-27T13:50:18.493Z,36.72
2023-02-27T13:52:46.755Z,37.22
2023-02-27T13:55:36.934Z,36.42
2023-02-27T13:58:05.513Z,37.40
2023-02-27T14:00:34.367Z,36.97
2023-02-27T14:03:07.744Z,37.94
2023-02-27T14:05:38.137Z,38.68
2023-02-27T14:08:20.369Z,39.48
2023-02-27T14:11:12.693Z,40.21
2023-02-27T14:13:45.151Z,38.51
2023-02-27T14:16:32.889Z,37.94
2023-02-27T14:19:01.283Z,38.80
2023-02-27T14:22:01.068Z,40.34
2023-02-27T14:24:38.199Z,38.90
2023-02-27T14:27:15.348Z,37.84
2023-02-27T14:29:45.251Z,38.54
2023-02-27T14:32:47.700Z,38.72
2023-02-27T14:35:16.210Z,39.61
2023-02-27T14:37:43.029Z,38.39
2023-02-27T14:40:29.227Z,38.05
2023-02-27T14:43:02.327Z,37.44
2023-02-27T14:45:30.873Z,36.41
2023-02-27T14:47:58.213Z,38.08
2023-02-27T14:50:33.904Z,36.03
2023-02-27T14:53:05.572Z,36.03
2023-02-27T14:55:38.320Z,38.00
2023-02-27T14:58:07.710Z,36.25
2023-02-27T15:00:34.075Z,36.69
2023-02-27T15:03:07.043Z,37.82
2023-02-27T15:05:35.134Z,36.06
2023-02-27T15:08:01.722Z,36.65
2023-02-27T15:10:33.431Z,37.48
2023-02-27T15:13:02.859Z,38.16
2023-02-27T15:15:29.823Z,37.81
2023-02-27T15:17:56.485Z,38.47
2023-02-27T15:20:30.737Z,37.98
2023-02-27T15:23:24.127Z,38.21
2023-02-27T15:25:55.323Z,37.84
2023-02-27T15:28:38.191Z,37.48
2023-02-27T15:31:09.910Z,38.49
2023-02-27T15:33:36.857Z,39.44
2023-02-27T15:36:06.607Z,38.29
2023-02-27T15:38:38.357Z,38.87
2023-02-27T15:41:05.567Z,40.08
2023-02-27T15:43:35.400Z,39.07
2023-02-27T15:46:02.265Z,39.32
2023-02-27T15:48:29.891Z,39.89
2023-02-27T15:51:05.089Z,38.93
2023-02-27T15:53:33.973Z,38.17
2023-02-27T15:56:13.010Z,38.79
2023-02-27T15:58:53.861Z,39.43
2023-02-27T16:01:29.527Z,39.17
2023-02-27T16:04:02.720Z,39.76
2023-02-27T16:06:33.229Z,39.89
2023-02-27T16:09:05.522Z,39.17
2023-02-27T16:11:37.300Z,39.27
2023-02-27T16:14:06.122Z,39.52
2023-02-27T16:16:38.492Z,39.20
2023-02-27T16:19:26.858Z,39.22
2023-02-27T16:22:23.495Z,39.62
2023-02-27T16:24:50.735Z,39.21
2023-02-27T16:27:25.776Z,39.57
2023-02-27T16:29:55.188Z,40.34
2023-02-27T16:32:26.601Z,40.17
2023-02-27T16:35:07.819Z,40.40
2023-02-27T16:37:38.449Z,41.28
2023-02-27T16:40:23.599Z,40.18
2023-02-27T16:42:51.388Z,40.95
2023-02-27T16:45:24.447Z,40.99
2023-02-27T16:47:54.028Z,40.86
2023-02-27T16:50:28.632Z,41.63
2023-02-27T16:52:55.215Z,41.80
2023-02-27T16:55:21.882Z,42.11
2023-02-27T16:57:48.243Z,41.59
2023-02-27T17:00:16.259Z,41.17
2023-02-27T17:02:44.437Z,41.24
2023-02-27T17:05:11.146Z,41.76
2023-02-27T17:07:37.800Z,41.93
2023-02-27T17:10:04.575Z,42.44
2023-02-27T17:12:33.478Z,42.14
2023-02-27T17:15:00.041Z,42.40
2023-02-27T17:17:26.431Z,42.16
2023-02-27T17:19:52.820Z,42.25
2023-02-27T17:22:19.270Z,41.94
2023-02-27T17:24:45.696Z,42.53
2023-02-27T17:27:12.063Z,43.39
2023-02-27T17:29:38.946Z,42.82
2023-02-27T17:32:06.342Z,42.96
2023-02-27T17:34:32.827Z,43.20
2023-02-27T17:36:59.231Z,42.79
2023-02-27T17:39:25.740Z,42.77
2023-02-27T17:41:53.137Z,42.81
2023-02-27T17:44:19.589Z,43.31
2023-02-27T17:46:45.967Z,42.97
2023-02-27T17:49:12.360Z,43.48
2023-02-27T17:51:38.831Z,43.82
2023-02-27T17:54:06.257Z,43.13
2023-02-27T17:56:35.044Z,43.63
2023-02-27T17:59:03.179Z,44.15
2023-02-27T18:01:29.681Z,43.52
2023-02-27T18:03:56.520Z,43.99
2023-02-27T18:06:24.017Z,44.46
2023-02-27T18:08:51.094Z,44.27
2023-02-27T18:11:20.240Z,44.52
2023-02-27T18:13:47.493Z,44.78
2023-02-27T18:16:14.381Z,44.55
2023-02-27T18:18:42.648Z,44.43
2023-02-27T18:21:15.404Z,44.86
2023-02-27T18:23:42.283Z,44.63
2023-02-27T18:26:27.250Z,44.98
2023-02-27T18:28:56.595Z,44.80
2023-02-27T18:31:26.138Z,44.62
2023-02-27T18:33:52.904Z,45.05
2023-02-27T18:36:19.686Z,44.65
2023-02-27T18:38:46.693Z,45.27
2023-02-27T18:41:14.250Z,44.84
2023-02-27T18:43:41.913Z,46.07
2023-02-27T18:46:09.083Z,45.51
2023-02-27T18:48:35.829Z,45.88
2023-02-27T18:51:05.402Z,45.70
2023-02-27T18:53:37.168Z,45.63
2023-02-27T18:56:07.180Z,46.02
2023-02-27T18:58:34.463Z,45.90
2023-02-27T19:01:01.163Z,46.42
2023-02-27T19:03:27.831Z,46.03
2023-02-27T19:05:54.555Z,46.11
2023-02-27T19:08:21.166Z,45.94
2023-02-27T19:10:47.577Z,46.82
2023-02-27T19:13:13.962Z,46.35
2023-02-27T19:15:40.495Z,46.48
2023-02-27T19:18:07.063Z,47.30
2023-02-27T19:20:34.750Z,47.23
2023-02-27T19:23:01.154Z,47.14
2023-02-27T19:25:27.540Z,47.85
2023-02-27T19:27:55.186Z,47.61
2023-02-27T19:30:21.795Z,48.91
2023-02-27T19:32:48.286Z,48.38
2023-02-27T19:35:15.267Z,49.32
2023-02-27T19:37:42.356Z,48.59
2023-02-27T19:40:10.589Z,49.65
2023-02-27T19:42:37.046Z,48.84
2023-02-27T19:45:03.630Z,49.20
2023-02-27T19:47:30.016Z,49.33
2023-02-27T19:49:56.479Z,49.26
2023-02-27T19:52:22.835Z,49.52
2023-02-27T19:54:49.365Z,49.65
2023-02-27T19:57:15.874Z,49.25
2023-02-27T19:59:42.372Z,49.47
2023-02-27T20:02:10.996Z,49.66
2023-02-27T20:04:37.434Z,49.71
2023-02-27T20:07:05.867Z,49.92
2023-02-27T20:09:33.690Z,49.83
2023-02-27T20:12:01.434Z,49.05
2023-02-27T20:14:28.584Z,50.56
2023-02-27T20:16:55.448Z,49.99
2023-02-27T20:19:23.405Z,49.93
2023-02-27T20:21:51.804Z,49.69
2023-02-27T20:24:18.875Z,50.09
2023-02-27T20:26:48.591Z,50.82
2023-02-27T20:29:18.457Z,50.25
2023-02-27T20:31:47.471Z,50.02
2023-02-27T20:34:16.800Z,50.62
2023-02-27T20:36:43.728Z,50.74
2023-02-27T20:39:11.763Z,51.35
2023-02-27T20:41:40.134Z,51.71
2023-02-27T20:44:11.462Z,52.26
2023-02-27T20:46:40.603Z,51.38
2023-02-27T20:49:07.882Z,51.72
2023-02-27T20:51:38.105Z,51.24
2023-02-27T20:54:08.354Z,50.34
2023-02-27T20:56:41.199Z,51.10
2023-02-27T20:59:10.321Z,50.96
2023-02-27T21:01:38.454Z,51.27
2023-02-27T21:04:05.269Z,50.62
2023-02-27T21:06:32.142Z,50.87
2023-02-27T21:09:02.505Z,50.56
2023-02-27T21:11:30.695Z,51.04
2023-02-27T21:13:59.775Z,51.13
2023-02-27T21:16:26.342Z,52.10
2023-02-27T21:18:56.323Z,51.70
2023-02-27T21:21:29.228Z,52.07
2023-02-27T21:23:56.151Z,51.15
2023-02-27T21:26:26.226Z,50.98
2023-02-27T21:29:01.176Z,51.40
2023-02-27T21:31:31.241Z,52.02
2023-02-27T21:34:00.237Z,51.73
2023-02-27T21:36:35.670Z,51.48
2023-02-27T21:39:06.020Z,51.40
2023-02-27T21:41:34.532Z,52.41
2023-02-27T21:44:02.490Z,52.76
2023-02-27T21:46:29.432Z,51.93
2023-02-27T21:48:56.272Z,52.63
2023-02-27T21:51:38.376Z,52.89
2023-02-27T21:54:06.632Z,52.67
2023-02-27T21:56:33.007Z,52.71
2023-02-27T21:59:01.641Z,52.42
2023-02-27T22:01:29.256Z,53.32
2023-02-27T22:03:56.371Z,52.62
2023-02-27T22:06:25.364Z,52.28
2023-02-27T22:08:56.094Z,52.73
2023-02-27T22:11:23.742Z,52.76
2023-02-27T22:13:50.269Z,53.28
2023-02-27T22:16:16.929Z,52.92
2023-02-27T22:18:43.295Z,52.55
2023-02-27T22:21:18.259Z,52.67
2023-02-27T22:23:46.093Z,52.52
2023-02-27T22:26:24.175Z,53.13
2023-02-27T22:28:52.216Z,53.71
2023-02-27T22:31:31.270Z,53.71
2023-02-27T22:34:43.934Z,53.68
2023-02-27T22:37:10.349Z,53.77
2023-02-27T22:39:36.833Z,53.86
2023-02-27T22:42:03.411Z,53.95
2023-02-27T22:44:29.830Z,54.05
2023-02-27T22:46:56.362Z,53.81
2023-02-27T22:49:23.633Z,54.00
2023-02-27T22:51:51.920Z,54.42
2023-02-27T22:54:20.631Z,54.11
2023-02-27T22:56:49.576Z,53.98
2023-02-27T22:59:16.616Z,54.51
2023-02-27T23:01:43.118Z,54.80
2023-02-27T23:04:11.240Z,54.61
2023-02-27T23:06:39.919Z,54.72
2023-02-27T23:09:10.131Z,54.89
2023-02-27T23:11:36.703Z,54.88
2023-02-27T23:14:03.133Z,55.00
2023-02-27T23:16:29.646Z,54.64
2023-02-27T23:18:57.970Z,55.21
2023-02-27T23:21:34.155Z,55.24
2023-02-27T23:24:04.594Z,55.79
2023-02-27T23:26:31.011Z,55.96
2023-02-27T23:28:57.704Z,55.63
2023-02-27T23:31:24.233Z,55.17
2023-02-27T23:33:50.644Z,55.30
2023-02-27T23:36:17.690Z,55.71
2023-02-27T23:38:46.414Z,55.38
2023-02-27T23:41:17.145Z,55.09
2023-02-27T23:43:44.677Z,55.73
2023-02-27T23:46:13.979Z,55.50
2023-02-27T23:48:40.863Z,55.74
2023-02-27T23:51:08.805Z,55.37
2023-02-27T23:53:37.474Z,55.70
2023-02-27T23:56:18.660Z,55.62
2023-02-27T23:58:46.098Z,55.40
